Airfield :
LOGIN :

Register | Disclaimer

   EN    FR    IT 

 










Legend :    VFR   Marginal VFR   IFR   Intensive IFR   Very Intensive IFR
Visi :
Ceiling :
>= 8 km
>= 3000ft
5 to 8 km
1000 to 3000 ft
1500m to 5 km
500 to 1000 ft
800 to 1500m
200 to 500 ft
< 800m
< 200 ft
Symbols :   Thunderstorms  Fog  Heavy snow  Heavy precipitations  Wind > 20 kt
SIGMETs :     Misc.  Thunderstorms  Icing  Turbulence  Mountain Waves  Volcanic Ashes






- Airport Elevation : 1470 ft
- IATA code : KLU


LOWK - Klagenfurt

CURRENT METAR :
  • 090920Z 07003KT 9999 FEW003 SCT040 BKN060 M02/M02 Q1009 NOSIG

EXPIRED METARs :
  • 090850Z VRB01KT 9999 FEW002 SCT040 BKN060 M02/M02 Q1010 NOSIG
  • 090820Z VRB01KT 9999 FEW002 SCT040 BKN060 M02/M03 Q1010 NOSIG
  • 090750Z VRB01KT 9999 FEW002 SCT040 BKN070 M02/M03 Q1010 NOSIG
  • 090720Z VRB02KT 9999 FEW002 SCT040 BKN060 M03/M03 Q1010 NOSIG
  • 090650Z VRB02KT 9999 FEW002 SCT040 BKN050 M03/M03 Q1010 NOSIG

TAF TAF LOWK
Valid from the 09 at 06:00 until the 10 at 06:00 UTC


090515Z 0906/1006 VRB02KT 9999 FEW010 BKN050 TX00/0919Z TNM04/0906Z
TEMPO 0909/0922 -RA SCT020 BKN040
PROB40
TEMPO 0909/0922 -FZRA
TEMPO 0920/1006 3000 BR BKN006



MET'MAP, your aeronautical weather chart ! - Copyright ORBIFLY December 2007 - Disclaimer

ORBIFLY MET'MAP TEAM :

Programming & Development : Alexandra Zaïnal
Concept & original design : Baudouin d'Aumeries
Assistance for programming : Marc-Olivier Méhu
Technical & hardware support : Manuel Goepfert

Contact : metmap@orbifly.com




SOURCES & CREDITS :

   NOAA